createdAt,value
2016-12-25T00:00:38.793Z,981.69
2016-12-25T00:01:38.786Z,981.67
2016-12-25T00:02:38.785Z,981.59
2016-12-25T00:03:38.781Z,981.57
2016-12-25T00:04:38.777Z,981.62
2016-12-25T00:05:38.773Z,981.64
2016-12-25T00:06:38.765Z,981.68
2016-12-25T00:07:38.765Z,981.67
2016-12-25T00:08:38.760Z,981.76
2016-12-25T00:09:38.758Z,981.79
2016-12-25T00:10:38.756Z,981.79
2016-12-25T00:11:38.748Z,981.76
2016-12-25T00:12:38.748Z,981.82
2016-12-25T00:13:38.744Z,981.79
2016-12-25T00:14:38.736Z,981.81
2016-12-25T00:15:38.736Z,981.84
2016-12-25T00:16:38.727Z,981.87
2016-12-25T00:17:38.727Z,981.85
2016-12-25T00:18:38.720Z,981.8
2016-12-25T00:19:38.719Z,981.79
2016-12-25T00:20:38.719Z,981.68
2016-12-25T00:21:38.711Z,981.72
2016-12-25T00:22:38.710Z,981.69
2016-12-25T00:23:38.706Z,981.66
2016-12-25T00:24:38.846Z,981.65
2016-12-25T00:25:38.698Z,981.61
2016-12-25T00:26:38.690Z,981.59
2016-12-25T00:27:38.690Z,981.57
2016-12-25T00:28:38.686Z,981.53
2016-12-25T00:29:38.682Z,981.53
2016-12-25T00:30:38.678Z,981.49
2016-12-25T00:31:38.670Z,981.44
2016-12-25T00:32:38.673Z,981.46
2016-12-25T00:33:38.669Z,981.48
2016-12-25T00:34:38.910Z,981.49
2016-12-25T00:35:38.662Z,981.52
2016-12-25T00:36:38.654Z,981.5
2016-12-25T00:37:38.654Z,981.47
2016-12-25T00:38:38.650Z,981.49
2016-12-25T00:39:38.646Z,981.47
2016-12-25T00:40:38.642Z,981.48
2016-12-25T00:41:38.638Z,981.43
2016-12-25T00:42:38.634Z,981.44
2016-12-25T00:43:38.626Z,981.47
2016-12-25T00:44:38.631Z,981.48
2016-12-25T00:45:38.622Z,981.48
2016-12-25T00:46:38.619Z,981.46
2016-12-25T00:47:38.618Z,981.47
2016-12-25T00:48:38.610Z,981.46
2016-12-25T00:49:38.611Z,981.37
2016-12-25T00:50:38.607Z,981.38
2016-12-25T00:51:38.605Z,981.35
2016-12-25T00:52:38.599Z,981.32
2016-12-25T00:53:38.591Z,981.28
2016-12-25T00:54:38.591Z,981.28
2016-12-25T00:55:38.583Z,981.23
2016-12-25T00:56:38.583Z,981.22
2016-12-25T00:57:38.579Z,981.22
2016-12-25T00:58:38.575Z,981.21
2016-12-25T00:59:38.575Z,981.17
2016-12-25T01:00:38.568Z,981.16
2016-12-25T01:01:38.568Z,981.11
2016-12-25T01:02:38.560Z,981.05
2016-12-25T01:03:38.560Z,981.04
2016-12-25T01:04:38.556Z,981.02
2016-12-25T01:05:38.552Z,981.06
2016-12-25T01:06:38.548Z,981.15
2016-12-25T01:07:38.540Z,981.21
2016-12-25T01:08:38.540Z,981.19
2016-12-25T01:09:38.536Z,981.15
2016-12-25T01:10:38.532Z,981.15
2016-12-25T01:11:38.525Z,981.11
2016-12-25T01:12:38.528Z,981.1
2016-12-25T01:13:38.525Z,981.06
2016-12-25T01:14:38.517Z,981.11
2016-12-25T01:15:38.517Z,981.13
2016-12-25T01:16:38.509Z,981.19
2016-12-25T01:17:38.509Z,981.14
2016-12-25T01:18:38.505Z,981.17
2016-12-25T01:19:38.501Z,981.09
2016-12-25T01:20:38.497Z,981.11
2016-12-25T01:21:38.489Z,981.14
2016-12-25T01:22:38.489Z,981.16
2016-12-25T01:23:38.481Z,981.24
2016-12-25T01:24:38.485Z,981.29
2016-12-25T01:25:38.477Z,981.26
2016-12-25T01:26:38.474Z,981.24
2016-12-25T01:27:38.473Z,981.22
2016-12-25T01:28:38.470Z,981.17
2016-12-25T01:29:38.466Z,981.15
2016-12-25T01:30:38.462Z,981.12
2016-12-25T01:31:38.458Z,981.11
2016-12-25T01:32:38.450Z,981.1
2016-12-25T01:33:38.450Z,981.15
2016-12-25T01:34:38.442Z,981.18
2016-12-25T01:35:38.442Z,981.15
2016-12-25T01:36:38.438Z,981.18
2016-12-25T01:37:38.430Z,981.17
2016-12-25T01:38:38.434Z,981.21
2016-12-25T01:39:38.430Z,981.24
2016-12-25T01:40:38.427Z,981.27
2016-12-25T01:41:38.419Z,981.37
2016-12-25T01:42:38.418Z,981.37
2016-12-25T01:43:38.415Z,981.43
2016-12-25T01:44:38.410Z,981.4
2016-12-25T01:45:38.407Z,981.37
2016-12-25T01:46:38.403Z,981.29
2016-12-25T01:47:38.398Z,981.2
2016-12-25T01:48:38.395Z,981.19
2016-12-25T01:49:38.395Z,981.2
2016-12-25T01:50:38.384Z,981.23
2016-12-25T01:51:38.387Z,981.29
2016-12-25T01:52:38.383Z,981.37
2016-12-25T01:53:38.379Z,981.46
2016-12-25T01:54:38.376Z,981.42
2016-12-25T01:55:38.368Z,981.48
2016-12-25T01:56:38.368Z,981.5
2016-12-25T01:57:38.364Z,981.48
2016-12-25T01:58:38.359Z,981.52
2016-12-25T01:59:38.356Z,981.48
2016-12-25T02:00:38.352Z,981.45
2016-12-25T02:01:38.348Z,981.51
2016-12-25T02:02:38.344Z,981.48
2016-12-25T02:03:38.344Z,981.45
2016-12-25T02:04:38.337Z,981.52
2016-12-25T02:05:38.337Z,981.49
2016-12-25T02:06:38.329Z,981.48
2016-12-25T02:07:38.330Z,981.48
2016-12-25T02:08:38.325Z,981.44
2016-12-25T02:09:38.321Z,981.46
2016-12-25T02:10:38.317Z,981.44
2016-12-25T02:11:38.309Z,981.47
2016-12-25T02:12:38.309Z,981.49
2016-12-25T02:13:38.301Z,981.51
2016-12-25T02:14:38.301Z,981.5
2016-12-25T02:15:38.297Z,981.48
2016-12-25T02:16:38.289Z,981.47
2016-12-25T02:17:38.289Z,981.47
2016-12-25T02:18:38.285Z,981.43
2016-12-25T02:19:38.285Z,981.44
2016-12-25T02:20:38.280Z,981.44
2016-12-25T02:21:38.278Z,981.46
2016-12-25T02:22:38.274Z,981.47
2016-12-25T02:23:38.266Z,981.43
2016-12-25T02:24:38.266Z,981.4
2016-12-25T02:25:38.262Z,981.37
2016-12-25T02:26:38.261Z,981.33
2016-12-25T02:27:38.251Z,981.34
2016-12-25T02:28:38.250Z,981.38
2016-12-25T02:29:38.243Z,981.38
2016-12-25T02:30:38.246Z,981.36
2016-12-25T02:31:38.239Z,981.35
2016-12-25T02:32:38.241Z,981.34
2016-12-25T02:33:38.235Z,981.3
2016-12-25T02:34:38.227Z,981.35
2016-12-25T02:35:38.227Z,981.37
2016-12-25T02:36:38.219Z,981.36
2016-12-25T02:37:38.219Z,981.35
2016-12-25T02:38:38.215Z,981.33
2016-12-25T02:39:38.211Z,981.31
2016-12-25T02:40:38.207Z,981.29
2016-12-25T02:41:38.199Z,981.34
2016-12-25T02:42:38.199Z,981.34
2016-12-25T02:43:38.191Z,981.35
2016-12-25T02:44:38.196Z,981.32
2016-12-25T02:45:38.183Z,981.34
2016-12-25T02:46:38.187Z,981.37
2016-12-25T02:47:38.184Z,981.38
2016-12-25T02:48:38.175Z,981.44
2016-12-25T02:49:38.175Z,981.42
2016-12-25T02:50:38.167Z,981.43
2016-12-25T02:51:38.167Z,981.41
2016-12-25T02:52:38.163Z,981.4
2016-12-25T02:53:38.155Z,981.37
2016-12-25T02:54:38.155Z,981.33
2016-12-25T02:55:38.149Z,981.31
2016-12-25T02:56:38.147Z,981.26
2016-12-25T02:57:38.139Z,981.2
2016-12-25T02:58:38.139Z,981.14
2016-12-25T02:59:38.140Z,981.11
2016-12-25T03:00:38.131Z,981.09
2016-12-25T03:01:38.131Z,981.08
2016-12-25T03:02:38.123Z,981.08
2016-12-25T03:03:38.124Z,981.1
2016-12-25T03:04:38.116Z,981.06
2016-12-25T03:05:38.116Z,980.99
2016-12-25T03:06:38.112Z,981.02
2016-12-25T03:07:38.104Z,981.08
2016-12-25T03:08:38.104Z,981.14
2016-12-25T03:09:38.100Z,981.11
2016-12-25T03:10:38.100Z,981.06
2016-12-25T03:11:38.088Z,981.09
2016-12-25T03:12:38.092Z,981.14
2016-12-25T03:13:38.088Z,981.16
2016-12-25T03:14:38.080Z,981.19
2016-12-25T03:15:38.081Z,981.18
2016-12-25T03:16:38.072Z,981.16
2016-12-25T03:17:38.073Z,981.15
2016-12-25T03:18:38.068Z,981.1
2016-12-25T03:19:38.065Z,981.11
2016-12-25T03:20:38.057Z,981.13
2016-12-25T03:21:38.061Z,981.16
2016-12-25T03:22:38.053Z,981.24
2016-12-25T03:23:38.053Z,981.25
2016-12-25T03:24:38.049Z,981.2
2016-12-25T03:25:38.041Z,981.22
2016-12-25T03:26:38.041Z,981.18
2016-12-25T03:27:38.033Z,981.15
2016-12-25T03:28:38.034Z,981.05
2016-12-25T03:29:38.029Z,981.07
2016-12-25T03:30:38.022Z,981.04
2016-12-25T03:31:38.022Z,981
2016-12-25T03:32:38.018Z,980.96
2016-12-25T03:33:38.014Z,980.89
2016-12-25T03:34:38.010Z,980.9
2016-12-25T03:35:38.010Z,980.9
2016-12-25T03:36:37.998Z,980.84
2016-12-25T03:37:38.002Z,980.83
2016-12-25T03:38:37.998Z,980.83
2016-12-25T03:39:37.994Z,980.87
2016-12-25T03:40:37.990Z,980.86
2016-12-25T03:41:37.986Z,980.88
2016-12-25T03:42:37.983Z,980.91
2016-12-25T03:43:37.975Z,980.86
2016-12-25T03:44:37.975Z,980.81
2016-12-25T03:45:37.967Z,980.84
2016-12-25T03:46:37.966Z,980.87
2016-12-25T03:47:37.959Z,980.94
2016-12-25T03:48:37.959Z,980.92
2016-12-25T03:49:37.955Z,980.97
2016-12-25T03:50:37.955Z,980.91
2016-12-25T03:51:37.943Z,980.86
2016-12-25T03:52:37.947Z,980.85
2016-12-25T03:53:37.943Z,980.88
2016-12-25T03:54:37.939Z,980.85
2016-12-25T03:55:37.935Z,980.82
2016-12-25T03:56:37.928Z,980.76
2016-12-25T03:57:37.928Z,980.68
2016-12-25T03:58:37.920Z,980.63
2016-12-25T03:59:37.919Z,980.68
2016-12-25T04:00:37.912Z,980.72
2016-12-25T04:01:37.911Z,980.77
2016-12-25T04:02:37.907Z,980.78
2016-12-25T04:03:37.904Z,980.82
2016-12-25T04:04:37.900Z,980.85
2016-12-25T04:05:37.900Z,980.91
2016-12-25T04:06:37.888Z,980.89
2016-12-25T04:07:37.891Z,980.89
2016-12-25T04:08:37.883Z,980.83
2016-12-25T04:09:37.883Z,980.77
2016-12-25T04:10:37.875Z,980.7
2016-12-25T04:11:37.875Z,980.71
2016-12-25T04:12:37.867Z,980.76
2016-12-25T04:13:37.867Z,980.8
2016-12-25T04:14:37.863Z,980.81
2016-12-25T04:15:37.859Z,980.77
2016-12-25T04:16:37.860Z,980.71
2016-12-25T04:17:37.851Z,980.71
2016-12-25T04:18:37.847Z,980.71
2016-12-25T04:19:37.843Z,980.72
2016-12-25T04:20:37.835Z,980.77
2016-12-25T04:21:37.834Z,980.81
2016-12-25T04:22:37.832Z,980.82
2016-12-25T04:23:37.827Z,980.82
2016-12-25T04:24:37.823Z,980.82
2016-12-25T04:25:37.819Z,980.83
2016-12-25T04:26:37.819Z,980.78
2016-12-25T04:27:37.815Z,980.75
2016-12-25T04:28:37.812Z,980.73
2016-12-25T04:29:37.807Z,980.67
2016-12-25T04:30:37.803Z,980.61
2016-12-25T04:31:37.796Z,980.57
2016-12-25T04:32:37.796Z,980.55
2016-12-25T04:33:37.792Z,980.55
2016-12-25T04:34:37.788Z,980.56
2016-12-25T04:35:37.784Z,980.65
2016-12-25T04:36:37.780Z,980.67
2016-12-25T04:37:37.773Z,980.69
2016-12-25T04:38:37.772Z,980.75
2016-12-25T04:39:37.769Z,980.78
2016-12-25T04:40:37.764Z,980.86
2016-12-25T04:41:37.764Z,980.88
2016-12-25T04:42:37.756Z,980.91
2016-12-25T04:43:37.752Z,981.01
2016-12-25T04:44:37.752Z,981.03
2016-12-25T04:45:37.748Z,981.04
2016-12-25T04:46:37.744Z,981.01
2016-12-25T04:47:37.736Z,980.98
2016-12-25T04:48:37.736Z,980.96
2016-12-25T04:49:37.732Z,980.92
2016-12-25T04:50:37.728Z,980.99
2016-12-25T04:51:37.721Z,981.03
2016-12-25T04:52:37.720Z,980.97
2016-12-25T04:53:37.718Z,980.95
2016-12-25T04:54:37.713Z,980.97
2016-12-25T04:55:37.713Z,980.9
2016-12-25T04:56:37.709Z,980.97
2016-12-25T04:57:37.701Z,980.93
2016-12-25T04:58:37.701Z,980.9
2016-12-25T04:59:37.693Z,980.91
2016-12-25T05:00:37.694Z,980.92
2016-12-25T05:01:37.690Z,980.91
2016-12-25T05:02:37.686Z,980.95
2016-12-25T05:03:37.681Z,980.91
2016-12-25T05:04:37.678Z,980.89
2016-12-25T05:05:37.674Z,980.9
2016-12-25T05:06:37.669Z,980.94
2016-12-25T05:07:37.666Z,980.95
2016-12-25T05:08:37.662Z,980.96
2016-12-25T05:09:37.661Z,981.01
2016-12-25T05:10:37.650Z,981.05
2016-12-25T05:11:37.650Z,981.03
2016-12-25T05:12:37.646Z,981.02
2016-12-25T05:13:37.647Z,981.03
2016-12-25T05:14:37.642Z,981.04
2016-12-25T05:15:37.634Z,981.07
2016-12-25T05:16:37.634Z,981.05
2016-12-25T05:17:37.630Z,981.03
2016-12-25T05:18:37.626Z,981.04
2016-12-25T05:19:37.622Z,981.1
2016-12-25T05:20:37.615Z,981.06
2016-12-25T05:21:37.615Z,981.03
2016-12-25T05:22:37.607Z,981
2016-12-25T05:23:37.607Z,981
2016-12-25T05:24:37.599Z,981.02
2016-12-25T05:25:37.599Z,981
2016-12-25T05:26:37.595Z,980.97
2016-12-25T05:27:37.591Z,980.96
2016-12-25T05:28:37.587Z,980.93
2016-12-25T05:29:37.580Z,980.94
2016-12-25T05:30:37.580Z,980.86
2016-12-25T05:31:37.576Z,980.88
2016-12-25T05:32:37.572Z,980.86
2016-12-25T05:33:37.564Z,980.84
2016-12-25T05:34:37.567Z,980.85
2016-12-25T05:35:37.560Z,980.85
2016-12-25T05:36:37.560Z,980.82
2016-12-25T05:37:37.552Z,980.83
2016-12-25T05:38:37.551Z,980.84
2016-12-25T05:39:37.544Z,980.88
2016-12-25T05:40:37.544Z,980.87
2016-12-25T05:41:37.536Z,980.86
2016-12-25T05:42:37.536Z,980.87
2016-12-25T05:43:37.532Z,980.93
2016-12-25T05:44:37.528Z,980.89
2016-12-25T05:45:37.524Z,980.93
2016-12-25T05:46:37.517Z,980.89
2016-12-25T05:47:37.517Z,980.85
2016-12-25T05:48:37.509Z,980.87
2016-12-25T05:49:37.509Z,980.85
2016-12-25T05:50:37.501Z,980.84
2016-12-25T05:51:37.505Z,980.87
2016-12-25T05:52:37.497Z,980.87
2016-12-25T05:53:37.494Z,980.84
2016-12-25T05:54:37.489Z,980.86
2016-12-25T05:55:37.485Z,980.89
2016-12-25T05:56:37.481Z,980.97
2016-12-25T05:57:37.481Z,981.04
2016-12-25T05:58:37.477Z,981.06
2016-12-25T05:59:37.473Z,981.16
2016-12-25T06:00:37.469Z,981.12
2016-12-25T06:01:37.461Z,981.08
2016-12-25T06:02:37.461Z,981.09
2016-12-25T06:03:37.454Z,981.08
2016-12-25T06:04:37.453Z,981.12
2016-12-25T06:05:37.449Z,981.08
2016-12-25T06:06:37.445Z,981.11
2016-12-25T06:07:37.442Z,981.11
2016-12-25T06:08:37.438Z,981.18
2016-12-25T06:09:37.435Z,981.14
2016-12-25T06:10:37.425Z,981.18
2016-12-25T06:11:37.426Z,981.21
2016-12-25T06:12:37.418Z,981.22
2016-12-25T06:13:37.422Z,981.25
2016-12-25T06:14:37.414Z,981.24
2016-12-25T06:15:37.411Z,981.25
2016-12-25T06:16:37.406Z,981.28
2016-12-25T06:17:37.397Z,981.31
2016-12-25T06:18:37.401Z,981.31
2016-12-25T06:19:37.398Z,981.31
2016-12-25T06:20:37.394Z,981.3
2016-12-25T06:21:37.387Z,981.22
2016-12-25T06:22:37.386Z,981.13
2016-12-25T06:23:37.378Z,981.06
2016-12-25T06:24:37.378Z,981.03
2016-12-25T06:25:37.374Z,981.02
2016-12-25T06:26:37.370Z,981.06
2016-12-25T06:27:37.366Z,981.07
2016-12-25T06:28:37.359Z,981.14
2016-12-25T06:29:37.359Z,981.18
2016-12-25T06:30:37.351Z,981.21
2016-12-25T06:31:37.354Z,981.15
2016-12-25T06:32:37.343Z,981.24
2016-12-25T06:33:37.343Z,981.26
2016-12-25T06:34:37.339Z,981.2
2016-12-25T06:35:37.331Z,981.2
2016-12-25T06:36:37.335Z,981.24
2016-12-25T06:37:37.327Z,981.29
2016-12-25T06:38:37.327Z,981.31
2016-12-25T06:39:37.319Z,981.34
2016-12-25T06:40:37.319Z,981.38
2016-12-25T06:41:37.311Z,981.45
2016-12-25T06:42:37.311Z,981.42
2016-12-25T06:43:37.307Z,981.43
2016-12-25T06:44:37.302Z,981.36
2016-12-25T06:45:37.299Z,981.37
2016-12-25T06:46:37.292Z,981.38
2016-12-25T06:47:37.291Z,981.36
2016-12-25T06:48:37.283Z,981.32
2016-12-25T06:49:37.283Z,981.29
2016-12-25T06:50:37.279Z,981.24
2016-12-25T06:51:37.275Z,981.24
2016-12-25T06:52:37.271Z,981.31
2016-12-25T06:53:37.264Z,981.31
2016-12-25T06:54:37.259Z,981.29
2016-12-25T06:55:37.259Z,981.28
2016-12-25T06:56:37.259Z,981.31
2016-12-25T06:57:37.248Z,981.36
2016-12-25T06:58:37.248Z,981.43
2016-12-25T06:59:37.248Z,981.39
2016-12-25T07:00:37.243Z,981.39
2016-12-25T07:01:37.239Z,981.41
2016-12-25T07:02:37.232Z,981.42
2016-12-25T07:03:37.232Z,981.5
2016-12-25T07:04:37.228Z,981.47
2016-12-25T07:05:37.223Z,981.49
2016-12-25T07:06:37.215Z,981.5
2016-12-25T07:07:37.215Z,981.55
2016-12-25T07:08:37.212Z,981.55
2016-12-25T07:09:37.207Z,981.63
2016-12-25T07:10:37.204Z,981.61
2016-12-25T07:11:37.196Z,981.54
2016-12-25T07:12:37.196Z,981.47
2016-12-25T07:13:37.192Z,981.48
2016-12-25T07:14:37.187Z,981.49
2016-12-25T07:15:37.184Z,981.45
2016-12-25T07:16:37.179Z,981.43
2016-12-25T07:17:37.176Z,981.46
2016-12-25T07:18:37.168Z,981.45
2016-12-25T07:19:37.168Z,981.44
2016-12-25T07:20:37.160Z,981.48
2016-12-25T07:21:37.164Z,981.46
2016-12-25T07:22:37.156Z,981.53
2016-12-25T07:23:37.151Z,981.54
2016-12-25T07:24:37.152Z,981.63
2016-12-25T07:25:37.148Z,981.61
2016-12-25T07:26:37.144Z,981.66
2016-12-25T07:27:37.137Z,981.6
2016-12-25T07:28:37.136Z,981.57
2016-12-25T07:29:37.128Z,981.62
2016-12-25T07:30:37.128Z,981.67
2016-12-25T07:31:37.120Z,981.71
2016-12-25T07:32:37.120Z,981.73
2016-12-25T07:33:37.116Z,981.79
2016-12-25T07:34:37.113Z,981.75
2016-12-25T07:35:37.108Z,981.78
2016-12-25T07:36:37.101Z,981.79
2016-12-25T07:37:37.100Z,981.77
2016-12-25T07:38:37.092Z,981.83
2016-12-25T07:39:37.092Z,981.8
2016-12-25T07:40:37.084Z,981.79
2016-12-25T07:41:37.085Z,981.81
2016-12-25T07:42:37.080Z,981.82
2016-12-25T07:43:37.073Z,981.81
2016-12-25T07:44:37.076Z,981.78
2016-12-25T07:45:37.064Z,981.79
2016-12-25T07:46:37.068Z,981.78
2016-12-25T07:47:37.061Z,981.78
2016-12-25T07:48:37.062Z,981.8
2016-12-25T07:49:37.053Z,981.82
2016-12-25T07:50:37.052Z,981.79
2016-12-25T07:51:37.048Z,981.79
2016-12-25T07:52:37.044Z,981.84
2016-12-25T07:53:37.040Z,981.86
2016-12-25T07:54:37.039Z,981.92
2016-12-25T07:55:37.032Z,981.91
2016-12-25T07:56:37.026Z,981.9
2016-12-25T07:57:37.025Z,981.9
2016-12-25T07:58:37.043Z,981.92
2016-12-25T07:59:37.016Z,981.87
2016-12-25T08:00:37.010Z,981.88
2016-12-25T08:01:37.012Z,981.85
2016-12-25T08:02:37.008Z,981.89
2016-12-25T08:03:37.000Z,981.88
2016-12-25T08:04:36.997Z,981.85
2016-12-25T08:05:36.996Z,981.84
2016-12-25T08:06:36.993Z,981.88
2016-12-25T08:07:36.988Z,981.88
2016-12-25T08:08:36.985Z,981.89
2016-12-25T08:09:36.977Z,981.89
2016-12-25T08:10:36.976Z,981.87
2016-12-25T08:11:36.968Z,981.89
2016-12-25T08:12:36.970Z,981.91
2016-12-25T08:13:36.964Z,981.91
2016-12-25T08:14:36.960Z,981.94
2016-12-25T08:15:36.957Z,981.91
2016-12-25T08:16:36.948Z,981.92
2016-12-25T08:17:36.948Z,981.94
2016-12-25T08:18:36.940Z,981.95
2016-12-25T08:19:36.940Z,981.92
2016-12-25T08:20:36.936Z,981.98
2016-12-25T08:21:36.932Z,981.92
2016-12-25T08:22:36.925Z,981.89
2016-12-25T08:23:36.926Z,981.88
2016-12-25T08:24:36.920Z,981.91
2016-12-25T08:25:36.920Z,981.95
2016-12-25T08:26:36.913Z,981.99
2016-12-25T08:27:36.912Z,981.99
2016-12-25T08:28:36.907Z,982.02
2016-12-25T08:29:36.904Z,982.05
2016-12-25T08:30:36.896Z,982.04
2016-12-25T08:31:36.896Z,982.02
2016-12-25T08:32:36.887Z,982.09
2016-12-25T08:33:36.887Z,982.16
2016-12-25T08:34:36.883Z,982.18
2016-12-25T08:35:36.879Z,982.16
2016-12-25T08:36:36.875Z,982.2
2016-12-25T08:37:36.871Z,982.2
2016-12-25T08:38:36.867Z,982.24
2016-12-25T08:39:36.859Z,982.24
2016-12-25T08:40:36.859Z,982.24
2016-12-25T08:41:36.851Z,982.26
2016-12-25T08:42:36.855Z,982.23
2016-12-25T08:43:36.843Z,982.22
2016-12-25T08:44:36.846Z,982.21
2016-12-25T08:45:36.844Z,982.17
2016-12-25T08:46:36.839Z,982.15
2016-12-25T08:47:36.835Z,982.18
2016-12-25T08:48:36.827Z,982.23
2016-12-25T08:49:36.826Z,982.27
2016-12-25T08:50:36.824Z,982.32
2016-12-25T08:51:36.815Z,982.31
2016-12-25T08:52:36.815Z,982.26
2016-12-25T08:53:36.811Z,982.35
2016-12-25T08:54:36.807Z,982.35
2016-12-25T08:55:36.803Z,982.39
2016-12-25T08:56:36.799Z,982.35
2016-12-25T08:57:36.796Z,982.37
2016-12-25T08:58:36.791Z,982.4
2016-12-25T08:59:36.787Z,982.42
2016-12-25T09:00:36.784Z,982.44
2016-12-25T09:01:36.783Z,982.41
2016-12-25T09:02:36.775Z,982.43
2016-12-25T09:03:36.777Z,982.43
2016-12-25T09:04:36.768Z,982.44
2016-12-25T09:05:36.768Z,982.44
2016-12-25T09:06:36.763Z,982.46
2016-12-25T09:07:36.759Z,982.51
2016-12-25T09:08:36.751Z,982.52
2016-12-25T09:09:36.752Z,982.51
2016-12-25T09:10:36.747Z,982.51
2016-12-25T09:11:36.744Z,982.5
2016-12-25T09:12:36.744Z,982.48
2016-12-25T09:13:36.732Z,982.5
2016-12-25T09:14:36.736Z,982.5
2016-12-25T09:15:36.728Z,982.45
2016-12-25T09:16:36.728Z,982.46
2016-12-25T09:17:36.724Z,982.47
2016-12-25T09:18:36.720Z,982.46
2016-12-25T09:19:36.715Z,982.39
2016-12-25T09:20:36.708Z,982.35
2016-12-25T09:21:36.708Z,982.32
2016-12-25T09:22:36.700Z,982.21
2016-12-25T09:23:36.700Z,982.18
2016-12-25T09:24:36.693Z,982.13
2016-12-25T09:25:36.692Z,982.11
2016-12-25T09:26:36.688Z,982.13
2016-12-25T09:27:36.680Z,982.12
2016-12-25T09:28:36.684Z,982.24
2016-12-25T09:29:36.681Z,982.25
2016-12-25T09:30:36.677Z,982.29
2016-12-25T09:31:36.673Z,982.33
2016-12-25T09:32:36.669Z,982.29
2016-12-25T09:33:36.665Z,982.29
2016-12-25T09:34:36.813Z,982.28
2016-12-25T09:35:36.657Z,982.22
2016-12-25T09:36:36.657Z,982.22
2016-12-25T09:37:36.653Z,982.2
2016-12-25T09:38:36.649Z,982.16
2016-12-25T09:39:36.645Z,982.15
2016-12-25T09:40:36.641Z,982.21
2016-12-25T09:41:36.638Z,982.17
2016-12-25T09:42:36.633Z,982.12
2016-12-25T09:43:36.626Z,982.17
2016-12-25T09:44:36.627Z,982.17
2016-12-25T09:45:36.621Z,982.11
2016-12-25T09:46:36.614Z,982.02
2016-12-25T09:47:36.618Z,982.02
2016-12-25T09:48:36.614Z,982.01
2016-12-25T09:49:36.610Z,982.03
2016-12-25T09:50:36.602Z,982.02
2016-12-25T09:51:36.603Z,982.07
2016-12-25T09:52:36.598Z,982.06
2016-12-25T09:53:36.591Z,982.02
2016-12-25T09:54:36.591Z,982.02
2016-12-25T09:55:36.591Z,981.97
2016-12-25T09:56:36.583Z,981.94
2016-12-25T09:57:36.579Z,981.91
2016-12-25T09:58:36.579Z,981.85
2016-12-25T09:59:36.575Z,981.87
2016-12-25T10:00:36.572Z,981.86
2016-12-25T10:01:36.563Z,981.83
2016-12-25T10:02:36.559Z,981.84
2016-12-25T10:03:36.564Z,981.86
2016-12-25T10:04:36.559Z,981.85
2016-12-25T10:05:36.559Z,981.87
2016-12-25T10:06:36.547Z,981.86
2016-12-25T10:07:36.545Z,981.8
2016-12-25T10:08:36.543Z,981.82
2016-12-25T10:09:36.539Z,981.84
2016-12-25T10:10:36.539Z,981.8
2016-12-25T10:11:36.530Z,981.76
2016-12-25T10:12:36.531Z,981.74
2016-12-25T10:13:36.523Z,981.68
2016-12-25T10:14:36.523Z,981.68
2016-12-25T10:15:36.519Z,981.66
2016-12-25T10:16:36.515Z,981.66
2016-12-25T10:17:36.511Z,981.59
2016-12-25T10:18:36.505Z,981.58
2016-12-25T10:19:36.503Z,981.56
2016-12-25T10:20:36.499Z,981.54
2016-12-25T10:21:36.495Z,981.55
2016-12-25T10:22:36.495Z,981.56
2016-12-25T10:23:36.491Z,981.55
2016-12-25T10:24:36.491Z,981.51
2016-12-25T10:25:36.490Z,981.6
2016-12-25T10:26:36.483Z,981.65
2016-12-25T10:27:36.479Z,981.71
2016-12-25T10:28:36.475Z,981.81
2016-12-25T10:29:36.471Z,981.87
2016-12-25T10:30:36.464Z,981.87
2016-12-25T10:31:36.467Z,981.77
2016-12-25T10:32:36.463Z,981.64
2016-12-25T10:33:36.455Z,981.53
2016-12-25T10:34:36.451Z,981.49
2016-12-25T10:35:36.447Z,981.38
2016-12-25T10:36:36.451Z,981.35
2016-12-25T10:37:36.443Z,981.38
2016-12-25T10:38:36.440Z,981.36
2016-12-25T10:39:36.436Z,981.35
2016-12-25T10:40:36.432Z,981.32
2016-12-25T10:41:36.428Z,981.34
2016-12-25T10:42:36.432Z,981.41
2016-12-25T10:43:36.428Z,981.48
2016-12-25T10:44:36.424Z,981.49
2016-12-25T10:45:36.420Z,981.49
2016-12-25T10:46:36.420Z,981.57
2016-12-25T10:47:36.416Z,981.57
2016-12-25T10:48:36.412Z,981.48
2016-12-25T10:49:36.405Z,981.48
2016-12-25T10:50:36.405Z,981.4
2016-12-25T10:51:36.401Z,981.31
2016-12-25T10:52:36.401Z,981.25
2016-12-25T10:53:36.397Z,981.22
2016-12-25T10:54:36.393Z,981.25
2016-12-25T10:55:36.389Z,981.22
2016-12-25T10:56:36.385Z,981.22
2016-12-25T10:57:36.385Z,981.19
2016-12-25T10:58:36.381Z,981.19
2016-12-25T10:59:36.377Z,981.22
2016-12-25T11:00:36.377Z,981.17
2016-12-25T11:01:36.374Z,981.18
2016-12-25T11:02:36.369Z,981.14
2016-12-25T11:03:36.366Z,981.07
2016-12-25T11:04:36.366Z,981.05
2016-12-25T11:05:36.358Z,981.02
2016-12-25T11:06:36.358Z,981.08
2016-12-25T11:07:36.354Z,981.04
2016-12-25T11:08:36.350Z,981
2016-12-25T11:09:36.350Z,980.96
2016-12-25T11:10:36.347Z,980.96
2016-12-25T11:11:36.347Z,980.98
2016-12-25T11:12:36.339Z,981.04
2016-12-25T11:13:36.338Z,981.11
2016-12-25T11:14:36.334Z,981.13
2016-12-25T11:15:36.331Z,981.12
2016-12-25T11:16:36.331Z,981.12
2016-12-25T11:17:36.327Z,981.09
2016-12-25T11:18:36.319Z,981.04
2016-12-25T11:19:36.323Z,981.03
2016-12-25T11:20:36.319Z,981.02
2016-12-25T11:21:36.311Z,981.02
2016-12-25T11:22:36.315Z,980.99
2016-12-25T11:23:36.312Z,980.99
2016-12-25T11:24:36.307Z,981.07
2016-12-25T11:25:36.304Z,981.09
2016-12-25T11:26:36.300Z,981.11
2016-12-25T11:27:36.300Z,981.11
2016-12-25T11:28:36.296Z,981.06
2016-12-25T11:29:36.292Z,981.03
2016-12-25T11:30:36.288Z,980.99
2016-12-25T11:31:36.288Z,980.94
2016-12-25T11:32:36.284Z,980.9
2016-12-25T11:33:36.280Z,980.9
2016-12-25T11:34:36.281Z,980.9
2016-12-25T11:35:36.277Z,980.86
2016-12-25T11:36:36.272Z,980.86
2016-12-25T11:37:36.269Z,980.84
2016-12-25T11:38:36.269Z,980.83
2016-12-25T11:39:36.265Z,980.84
2016-12-25T11:40:36.265Z,980.89
2016-12-25T11:41:36.261Z,980.92
2016-12-25T11:42:36.253Z,980.9
2016-12-25T11:43:36.257Z,980.93
2016-12-25T11:44:36.253Z,980.86
2016-12-25T11:45:36.249Z,980.8
2016-12-25T11:46:36.245Z,980.77
2016-12-25T11:47:36.246Z,980.8
2016-12-25T11:48:36.237Z,980.82
2016-12-25T11:49:36.242Z,980.85
2016-12-25T11:50:36.233Z,980.87
2016-12-25T11:51:36.233Z,980.84
2016-12-25T11:52:36.230Z,980.78
2016-12-25T11:53:36.225Z,980.85
2016-12-25T11:54:36.222Z,980.85
2016-12-25T11:55:36.222Z,980.86
2016-12-25T11:56:36.218Z,980.84
2016-12-25T11:57:36.217Z,980.85
2016-12-25T11:58:36.210Z,980.83
2016-12-25T11:59:36.213Z,980.79
2016-12-25T12:00:36.210Z,980.8
2016-12-25T12:01:36.206Z,980.77
2016-12-25T12:02:36.202Z,980.8
2016-12-25T12:03:36.202Z,980.84
2016-12-25T12:04:36.198Z,980.82
2016-12-25T12:05:36.190Z,980.79
2016-12-25T12:06:36.194Z,980.79
2016-12-25T12:07:36.187Z,980.79
2016-12-25T12:08:36.186Z,980.78
2016-12-25T12:09:36.186Z,980.84
2016-12-25T12:10:36.178Z,980.79
2016-12-25T12:11:36.182Z,980.77
2016-12-25T12:12:36.178Z,980.73
2016-12-25T12:13:36.174Z,980.67
2016-12-25T12:14:36.170Z,980.64
2016-12-25T12:15:36.171Z,980.63
2016-12-25T12:16:36.166Z,980.62
2016-12-25T12:17:36.159Z,980.68
2016-12-25T12:18:36.159Z,980.68
2016-12-25T12:19:36.159Z,980.66
2016-12-25T12:20:36.151Z,980.64
2016-12-25T12:21:36.155Z,980.58
2016-12-25T12:22:36.151Z,980.55
2016-12-25T12:23:36.147Z,980.52
2016-12-25T12:24:36.147Z,980.5
2016-12-25T12:25:36.143Z,980.46
2016-12-25T12:26:36.139Z,980.49
2016-12-25T12:27:36.139Z,980.54
2016-12-25T12:28:36.132Z,980.57
2016-12-25T12:29:36.136Z,980.52
2016-12-25T12:30:36.132Z,980.56